Disclaimer

Please do not use the information listed here in-flight or in-navigation, as they are not provided to us by the airports but are provided by volunteers, so they might be outdated.

Search


Regions


Airport information page

Radio informations:
Tower (TWR) - 122.25 MHz
Automatic Terminal Information Service (ATIS) - 126.8 MHz
Approach (APP) - 132.4 MHz
ACC - 129.7 MHz

Airport informations:
Latitude: 17° 27' 11.22" N
Longitude: 078° 28' 03.31" E
Elevation: 1742 feet - 531 meters
Operating hours: N/A
Operating agency: Military-civil joint use airport
Timezone: UTC+5:30
Fuel: N/A

Runway information:
09/27 - 10600 x 148 feet< - >3231 x 45 meters

Recent METARs:
VOHY 190300Z 14005KT 5000 BR SCT015 SCT020 25/23 Q1020 NOSIG
VOHY 190330Z 14005KT 5000 BR SCT015 SCT020 26/23 Q1020 BECMG 6000
VOHY 190400Z 13006KT 6000 SCT015 SCT020 27/23 Q1020 NOSIG

Airport on the map: